sensor_id;sensor_type;location;lat;lon;timestamp;temperature;humidity
46898;DHT22;32646;50.958;6.258;2022-11-15T00:00:55;7.70;99.90
46898;DHT22;32646;50.958;6.258;2022-11-15T00:03:24;7.70;99.90
46898;DHT22;32646;50.958;6.258;2022-11-15T00:05:51;7.80;99.90
46898;DHT22;32646;50.958;6.258;2022-11-15T00:08:19;7.90;99.90
46898;DHT22;32646;50.958;6.258;2022-11-15T00:10:59;8.00;99.90
46898;DHT22;32646;50.958;6.258;2022-11-15T00:13:27;8.10;99.90
46898;DHT22;32646;50.958;6.258;2022-11-15T00:15:57;8.20;99.90
46898;DHT22;32646;50.958;6.258;2022-11-15T00:18:24;8.30;99.90
46898;DHT22;32646;50.958;6.258;2022-11-15T00:20:51;8.30;99.90
46898;DHT22;32646;50.958;6.258;2022-11-15T00:23:17;8.40;99.90
46898;DHT22;32646;50.958;6.258;2022-11-15T00:25:44;8.40;99.90
46898;DHT22;32646;50.958;6.258;2022-11-15T00:28:10;8.50;99.90
46898;DHT22;32646;50.958;6.258;2022-11-15T00:30:37;8.60;99.90
46898;DHT22;32646;50.958;6.258;2022-11-15T00:33:04;8.80;99.90
46898;DHT22;32646;50.958;6.258;2022-11-15T00:35:32;8.90;99.90
46898;DHT22;32646;50.958;6.258;2022-11-15T00:38:00;9.10;99.90
46898;DHT22;32646;50.958;6.258;2022-11-15T00:40:26;9.20;99.90
46898;DHT22;32646;50.958;6.258;2022-11-15T00:42:53;9.30;99.90
46898;DHT22;32646;50.958;6.258;2022-11-15T00:45:19;9.30;99.90
46898;DHT22;32646;50.958;6.258;2022-11-15T00:47:46;9.40;99.90
46898;DHT22;32646;50.958;6.258;2022-11-15T00:50:13;9.50;99.90
46898;DHT22;32646;50.958;6.258;2022-11-15T00:52:41;9.50;99.90
46898;DHT22;32646;50.958;6.258;2022-11-15T00:55:18;9.50;99.90
46898;DHT22;32646;50.958;6.258;2022-11-15T00:57:45;9.60;99.90
46898;DHT22;32646;50.958;6.258;2022-11-15T01:00:13;9.60;99.90
46898;DHT22;32646;50.958;6.258;2022-11-15T01:02:40;9.60;99.90
46898;DHT22;32646;50.958;6.258;2022-11-15T01:05:07;9.60;99.90
46898;DHT22;32646;50.958;6.258;2022-11-15T01:07:34;9.60;99.90
46898;DHT22;32646;50.958;6.258;2022-11-15T01:10:02;9.60;99.90
46898;DHT22;32646;50.958;6.258;2022-11-15T01:12:28;9.60;99.90
46898;DHT22;32646;50.958;6.258;2022-11-15T01:14:55;9.50;99.90
46898;DHT22;32646;50.958;6.258;2022-11-15T01:17:21;9.60;99.90
46898;DHT22;32646;50.958;6.258;2022-11-15T01:19:48;9.60;99.90
46898;DHT22;32646;50.958;6.258;2022-11-15T01:22:15;9.60;99.90
46898;DHT22;32646;50.958;6.258;2022-11-15T01:24:41;9.60;99.90
46898;DHT22;32646;50.958;6.258;2022-11-15T01:27:08;9.60;99.90
46898;DHT22;32646;50.958;6.258;2022-11-15T01:29:34;9.60;99.90
46898;DHT22;32646;50.958;6.258;2022-11-15T01:32:01;9.50;99.90
46898;DHT22;32646;50.958;6.258;2022-11-15T01:34:28;9.50;99.90
46898;DHT22;32646;50.958;6.258;2022-11-15T01:36:54;9.40;99.90
46898;DHT22;32646;50.958;6.258;2022-11-15T01:39:21;9.50;99.90
46898;DHT22;32646;50.958;6.258;2022-11-15T01:41:47;9.40;99.90
46898;DHT22;32646;50.958;6.258;2022-11-15T01:47:29;9.40;99.90
46898;DHT22;32646;50.958;6.258;2022-11-15T01:49:58;9.40;99.90
46898;DHT22;32646;50.958;6.258;2022-11-15T01:52:28;9.50;99.90
46898;DHT22;32646;50.958;6.258;2022-11-15T01:57:30;9.50;99.90
46898;DHT22;32646;50.958;6.258;2022-11-15T01:59:57;9.50;99.90
46898;DHT22;32646;50.958;6.258;2022-11-15T02:02:24;9.60;99.90
46898;DHT22;32646;50.958;6.258;2022-11-15T02:04:51;9.70;99.90
46898;DHT22;32646;50.958;6.258;2022-11-15T02:07:19;9.60;99.90
46898;DHT22;32646;50.958;6.258;2022-11-15T02:09:46;9.70;99.90
46898;DHT22;32646;50.958;6.258;2022-11-15T02:12:16;9.70;99.90
46898;DHT22;32646;50.958;6.258;2022-11-15T02:14:47;9.80;99.90
46898;DHT22;32646;50.958;6.258;2022-11-15T02:25:39;10.00;99.90
46898;DHT22;32646;50.958;6.258;2022-11-15T02:30:42;10.10;99.90
46898;DHT22;32646;50.958;6.258;2022-11-15T02:33:38;10.10;99.90
46898;DHT22;32646;50.958;6.258;2022-11-15T02:36:16;10.10;99.90
46898;DHT22;32646;50.958;6.258;2022-11-15T02:38:54;10.10;99.90
46898;DHT22;32646;50.958;6.258;2022-11-15T02:41:30;10.10;99.90
46898;DHT22;32646;50.958;6.258;2022-11-15T02:44:16;10.20;99.90
46898;DHT22;32646;50.958;6.258;2022-11-15T02:46:50;10.20;99.90
46898;DHT22;32646;50.958;6.258;2022-11-15T02:49:18;10.20;99.90
46898;DHT22;32646;50.958;6.258;2022-11-15T02:51:47;10.20;99.90
46898;DHT22;32646;50.958;6.258;2022-11-15T02:54:22;10.20;99.90
46898;DHT22;32646;50.958;6.258;2022-11-15T02:56:53;10.20;99.90
46898;DHT22;32646;50.958;6.258;2022-11-15T03:05:15;10.20;99.90
46898;DHT22;32646;50.958;6.258;2022-11-15T03:08:08;10.20;99.90
46898;DHT22;32646;50.958;6.258;2022-11-15T03:16:24;10.30;99.90
46898;DHT22;32646;50.958;6.258;2022-11-15T03:19:01;10.40;99.90
46898;DHT22;32646;50.958;6.258;2022-11-15T03:21:31;10.50;99.90
46898;DHT22;32646;50.958;6.258;2022-11-15T03:24:02;10.60;99.90
46898;DHT22;32646;50.958;6.258;2022-11-15T03:26:30;10.60;99.90
46898;DHT22;32646;50.958;6.258;2022-11-15T03:29:01;10.70;99.90
46898;DHT22;32646;50.958;6.258;2022-11-15T03:31:33;10.70;99.90
46898;DHT22;32646;50.958;6.258;2022-11-15T03:34:03;10.70;99.90
46898;DHT22;32646;50.958;6.258;2022-11-15T03:36:33;10.70;99.90
46898;DHT22;32646;50.958;6.258;2022-11-15T03:39:06;10.80;99.90
46898;DHT22;32646;50.958;6.258;2022-11-15T03:41:48;10.80;99.90
46898;DHT22;32646;50.958;6.258;2022-11-15T03:47:24;10.70;99.90
46898;DHT22;32646;50.958;6.258;2022-11-15T03:49:55;10.70;99.90
46898;DHT22;32646;50.958;6.258;2022-11-15T03:52:23;10.60;99.90
46898;DHT22;32646;50.958;6.258;2022-11-15T03:54:51;10.60;99.90
46898;DHT22;32646;50.958;6.258;2022-11-15T03:57:18;10.50;99.90
46898;DHT22;32646;50.958;6.258;2022-11-15T03:59:45;10.50;99.90
46898;DHT22;32646;50.958;6.258;2022-11-15T04:02:11;10.40;99.90
46898;DHT22;32646;50.958;6.258;2022-11-15T04:04:38;10.40;99.90
46898;DHT22;32646;50.958;6.258;2022-11-15T04:07:05;10.40;99.90
46898;DHT22;32646;50.958;6.258;2022-11-15T04:09:32;10.30;99.90
46898;DHT22;32646;50.958;6.258;2022-11-15T04:11:58;10.30;99.90
46898;DHT22;32646;50.958;6.258;2022-11-15T04:14:25;10.30;99.90
46898;DHT22;32646;50.958;6.258;2022-11-15T04:16:51;10.30;99.90
46898;DHT22;32646;50.958;6.258;2022-11-15T04:19:18;10.30;99.90
46898;DHT22;32646;50.958;6.258;2022-11-15T04:21:44;10.30;99.90
46898;DHT22;32646;50.958;6.258;2022-11-15T04:24:11;10.30;99.90
46898;DHT22;32646;50.958;6.258;2022-11-15T04:26:37;10.40;99.90
46898;DHT22;32646;50.958;6.258;2022-11-15T04:29:04;10.40;99.90
46898;DHT22;32646;50.958;6.258;2022-11-15T04:31:30;10.40;99.90
46898;DHT22;32646;50.958;6.258;2022-11-15T04:33:57;10.40;99.90
46898;DHT22;32646;50.958;6.258;2022-11-15T04:36:24;10.40;99.90
46898;DHT22;32646;50.958;6.258;2022-11-15T04:38:50;10.40;99.90
46898;DHT22;32646;50.958;6.258;2022-11-15T04:41:17;10.30;99.90
46898;DHT22;32646;50.958;6.258;2022-11-15T04:43:43;10.30;99.90
46898;DHT22;32646;50.958;6.258;2022-11-15T04:46:10;10.30;99.90
46898;DHT22;32646;50.958;6.258;2022-11-15T04:48:36;10.30;99.90
46898;DHT22;32646;50.958;6.258;2022-11-15T04:51:03;10.30;99.90
46898;DHT22;32646;50.958;6.258;2022-11-15T04:53:29;10.30;99.90
46898;DHT22;32646;50.958;6.258;2022-11-15T04:55:56;10.30;99.90
46898;DHT22;32646;50.958;6.258;2022-11-15T04:58:23;10.30;99.90
46898;DHT22;32646;50.958;6.258;2022-11-15T05:00:49;10.30;99.90
46898;DHT22;32646;50.958;6.258;2022-11-15T05:03:16;10.30;99.90
46898;DHT22;32646;50.958;6.258;2022-11-15T05:05:42;10.30;99.90
46898;DHT22;32646;50.958;6.258;2022-11-15T05:08:09;10.30;99.90
46898;DHT22;32646;50.958;6.258;2022-11-15T05:10:35;10.30;99.90
46898;DHT22;32646;50.958;6.258;2022-11-15T05:13:02;10.30;99.90
46898;DHT22;32646;50.958;6.258;2022-11-15T05:15:28;10.40;99.90
46898;DHT22;32646;50.958;6.258;2022-11-15T05:17:59;10.50;99.90
46898;DHT22;32646;50.958;6.258;2022-11-15T05:20:25;10.40;99.90
46898;DHT22;32646;50.958;6.258;2022-11-15T05:22:53;10.40;99.90
46898;DHT22;32646;50.958;6.258;2022-11-15T05:25:20;10.40;99.90
46898;DHT22;32646;50.958;6.258;2022-11-15T05:27:47;10.30;99.90
46898;DHT22;32646;50.958;6.258;2022-11-15T05:30:14;10.20;99.90
46898;DHT22;32646;50.958;6.258;2022-11-15T05:32:41;10.20;99.90
46898;DHT22;32646;50.958;6.258;2022-11-15T05:35:14;10.10;99.90
46898;DHT22;32646;50.958;6.258;2022-11-15T05:37:41;10.00;99.90
46898;DHT22;32646;50.958;6.258;2022-11-15T05:40:08;9.90;99.90
46898;DHT22;32646;50.958;6.258;2022-11-15T05:42:35;10.00;99.90
46898;DHT22;32646;50.958;6.258;2022-11-15T05:45:03;9.90;99.90
46898;DHT22;32646;50.958;6.258;2022-11-15T05:47:33;9.80;99.90
46898;DHT22;32646;50.958;6.258;2022-11-15T05:50:02;9.80;99.90
46898;DHT22;32646;50.958;6.258;2022-11-15T05:52:31;9.70;99.90
46898;DHT22;32646;50.958;6.258;2022-11-15T05:55:02;9.60;99.90
46898;DHT22;32646;50.958;6.258;2022-11-15T05:57:29;9.60;99.90
46898;DHT22;32646;50.958;6.258;2022-11-15T05:59:55;9.80;99.90
46898;DHT22;32646;50.958;6.258;2022-11-15T06:02:22;10.10;99.90
46898;DHT22;32646;50.958;6.258;2022-11-15T06:04:49;10.30;99.90
46898;DHT22;32646;50.958;6.258;2022-11-15T06:07:15;10.40;99.90
46898;DHT22;32646;50.958;6.258;2022-11-15T06:09:42;10.70;99.90
46898;DHT22;32646;50.958;6.258;2022-11-15T06:12:08;10.90;99.90
46898;DHT22;32646;50.958;6.258;2022-11-15T06:14:35;11.10;99.90
46898;DHT22;32646;50.958;6.258;2022-11-15T06:17:02;11.30;99.90
46898;DHT22;32646;50.958;6.258;2022-11-15T06:19:35;11.60;99.90
46898;DHT22;32646;50.958;6.258;2022-11-15T06:22:02;11.80;99.90
46898;DHT22;32646;50.958;6.258;2022-11-15T06:24:28;11.90;99.90
46898;DHT22;32646;50.958;6.258;2022-11-15T06:26:55;11.90;99.90
46898;DHT22;32646;50.958;6.258;2022-11-15T06:29:21;11.80;99.90
46898;DHT22;32646;50.958;6.258;2022-11-15T06:31:48;11.50;99.90
46898;DHT22;32646;50.958;6.258;2022-11-15T06:34:15;11.30;99.90
46898;DHT22;32646;50.958;6.258;2022-11-15T06:36:41;11.20;99.90
46898;DHT22;32646;50.958;6.258;2022-11-15T06:39:08;11.00;99.90
46898;DHT22;32646;50.958;6.258;2022-11-15T06:41:35;10.90;99.90
46898;DHT22;32646;50.958;6.258;2022-11-15T06:44:02;10.80;99.90
46898;DHT22;32646;50.958;6.258;2022-11-15T06:46:29;10.70;99.90
46898;DHT22;32646;50.958;6.258;2022-11-15T06:48:55;10.70;99.90
46898;DHT22;32646;50.958;6.258;2022-11-15T06:51:22;10.60;99.90
46898;DHT22;32646;50.958;6.258;2022-11-15T06:53:48;10.60;99.90
46898;DHT22;32646;50.958;6.258;2022-11-15T06:56:15;10.60;99.90
46898;DHT22;32646;50.958;6.258;2022-11-15T06:58:41;10.50;99.90
46898;DHT22;32646;50.958;6.258;2022-11-15T07:01:10;10.40;99.90
46898;DHT22;32646;50.958;6.258;2022-11-15T07:03:39;10.40;99.90
46898;DHT22;32646;50.958;6.258;2022-11-15T07:06:07;10.30;99.90
46898;DHT22;32646;50.958;6.258;2022-11-15T07:08:34;10.30;99.90
46898;DHT22;32646;50.958;6.258;2022-11-15T07:11:06;10.30;99.90
46898;DHT22;32646;50.958;6.258;2022-11-15T07:13:34;10.30;99.90
46898;DHT22;32646;50.958;6.258;2022-11-15T07:16:03;10.20;99.90
46898;DHT22;32646;50.958;6.258;2022-11-15T07:18:30;10.30;99.90
46898;DHT22;32646;50.958;6.258;2022-11-15T07:21:01;10.30;99.90
46898;DHT22;32646;50.958;6.258;2022-11-15T07:23:28;10.20;99.90
46898;DHT22;32646;50.958;6.258;2022-11-15T07:25:59;10.20;99.90
46898;DHT22;32646;50.958;6.258;2022-11-15T07:28:26;10.20;99.90
46898;DHT22;32646;50.958;6.258;2022-11-15T07:30:54;10.20;99.90
46898;DHT22;32646;50.958;6.258;2022-11-15T07:33:21;10.20;99.90
46898;DHT22;32646;50.958;6.258;2022-11-15T07:35:48;10.20;99.90
46898;DHT22;32646;50.958;6.258;2022-11-15T07:38:15;10.20;99.90
46898;DHT22;32646;50.958;6.258;2022-11-15T07:40:42;10.20;99.90
46898;DHT22;32646;50.958;6.258;2022-11-15T07:43:08;10.20;99.90
46898;DHT22;32646;50.958;6.258;2022-11-15T07:45:43;10.20;99.90
46898;DHT22;32646;50.958;6.258;2022-11-15T07:48:10;10.20;99.90
46898;DHT22;32646;50.958;6.258;2022-11-15T07:50:40;10.20;99.90
46898;DHT22;32646;50.958;6.258;2022-11-15T07:53:08;10.20;99.90
46898;DHT22;32646;50.958;6.258;2022-11-15T07:55:35;10.20;99.90
46898;DHT22;32646;50.958;6.258;2022-11-15T07:58:10;10.20;99.90
46898;DHT22;32646;50.958;6.258;2022-11-15T08:00:37;10.30;99.90
46898;DHT22;32646;50.958;6.258;2022-11-15T08:03:04;10.40;99.90
46898;DHT22;32646;50.958;6.258;2022-11-15T08:05:32;10.50;99.90
46898;DHT22;32646;50.958;6.258;2022-11-15T08:07:59;10.60;99.90
46898;DHT22;32646;50.958;6.258;2022-11-15T08:10:27;10.40;99.90
46898;DHT22;32646;50.958;6.258;2022-11-15T08:13:01;10.30;99.90
46898;DHT22;32646;50.958;6.258;2022-11-15T08:15:29;10.30;99.90
46898;DHT22;32646;50.958;6.258;2022-11-15T08:18:02;10.30;99.90
46898;DHT22;32646;50.958;6.258;2022-11-15T08:20:30;10.30;99.90
46898;DHT22;32646;50.958;6.258;2022-11-15T08:22:58;10.40;99.90
46898;DHT22;32646;50.958;6.258;2022-11-15T08:25:28;10.70;99.90
46898;DHT22;32646;50.958;6.258;2022-11-15T08:27:57;11.10;99.90
46898;DHT22;32646;50.958;6.258;2022-11-15T08:30:24;11.30;99.90
46898;DHT22;32646;50.958;6.258;2022-11-15T08:32:52;11.30;99.90
46898;DHT22;32646;50.958;6.258;2022-11-15T08:35:20;11.30;99.90
46898;DHT22;32646;50.958;6.258;2022-11-15T08:37:54;11.10;99.90
46898;DHT22;32646;50.958;6.258;2022-11-15T08:40:21;11.30;99.90
46898;DHT22;32646;50.958;6.258;2022-11-15T08:42:47;11.60;99.90
46898;DHT22;32646;50.958;6.258;2022-11-15T08:45:14;11.80;99.90
46898;DHT22;32646;50.958;6.258;2022-11-15T08:47:41;11.90;99.90
46898;DHT22;32646;50.958;6.258;2022-11-15T08:50:08;12.20;99.90
46898;DHT22;32646;50.958;6.258;2022-11-15T08:52:35;12.30;99.90
46898;DHT22;32646;50.958;6.258;2022-11-15T08:55:02;12.40;99.90
46898;DHT22;32646;50.958;6.258;2022-11-15T08:57:29;12.40;99.90
46898;DHT22;32646;50.958;6.258;2022-11-15T08:59:56;12.40;99.90
46898;DHT22;32646;50.958;6.258;2022-11-15T09:02:23;12.40;99.90
46898;DHT22;32646;50.958;6.258;2022-11-15T09:04:49;12.80;99.90
46898;DHT22;32646;50.958;6.258;2022-11-15T09:07:16;13.40;99.90
46898;DHT22;32646;50.958;6.258;2022-11-15T09:09:43;13.70;99.90
46898;DHT22;32646;50.958;6.258;2022-11-15T09:12:09;13.90;99.90
46898;DHT22;32646;50.958;6.258;2022-11-15T09:14:36;13.90;99.90
46898;DHT22;32646;50.958;6.258;2022-11-15T09:17:03;13.70;99.90
46898;DHT22;32646;50.958;6.258;2022-11-15T09:19:30;13.70;99.90
46898;DHT22;32646;50.958;6.258;2022-11-15T09:21:56;13.90;99.90
46898;DHT22;32646;50.958;6.258;2022-11-15T09:24:23;14.00;99.90
46898;DHT22;32646;50.958;6.258;2022-11-15T09:26:50;14.30;99.90
46898;DHT22;32646;50.958;6.258;2022-11-15T09:29:18;14.60;99.90
46898;DHT22;32646;50.958;6.258;2022-11-15T09:31:44;14.70;99.90
46898;DHT22;32646;50.958;6.258;2022-11-15T09:34:11;15.10;99.90
46898;DHT22;32646;50.958;6.258;2022-11-15T09:36:38;15.40;99.90
46898;DHT22;32646;50.958;6.258;2022-11-15T09:39:05;15.50;99.90
46898;DHT22;32646;50.958;6.258;2022-11-15T09:44:35;15.20;99.90
46898;DHT22;32646;50.958;6.258;2022-11-15T09:49:34;15.80;97.10
46898;DHT22;32646;50.958;6.258;2022-11-15T09:52:01;15.50;96.70
46898;DHT22;32646;50.958;6.258;2022-11-15T09:54:35;15.50;96.10
46898;DHT22;32646;50.958;6.258;2022-11-15T09:57:21;15.60;96.10
46898;DHT22;32646;50.958;6.258;2022-11-15T10:05:24;16.00;96.00
46898;DHT22;32646;50.958;6.258;2022-11-15T10:10:39;16.60;97.90
46898;DHT22;32646;50.958;6.258;2022-11-15T10:13:20;16.60;95.90
46898;DHT22;32646;50.958;6.258;2022-11-15T10:15:49;16.20;94.50
46898;DHT22;32646;50.958;6.258;2022-11-15T10:20:57;16.10;94.80
46898;DHT22;32646;50.958;6.258;2022-11-15T10:23:25;15.90;94.50
46898;DHT22;32646;50.958;6.258;2022-11-15T10:25:57;15.70;94.10
46898;DHT22;32646;50.958;6.258;2022-11-15T10:28:32;15.50;93.60
46898;DHT22;32646;50.958;6.258;2022-11-15T10:31:00;15.70;92.90
46898;DHT22;32646;50.958;6.258;2022-11-15T10:33:34;15.60;92.70
46898;DHT22;32646;50.958;6.258;2022-11-15T10:41:22;15.90;92.80
46898;DHT22;32646;50.958;6.258;2022-11-15T10:44:09;16.30;91.00
46898;DHT22;32646;50.958;6.258;2022-11-15T10:46:40;16.30;90.00
46898;DHT22;32646;50.958;6.258;2022-11-15T10:49:19;16.30;90.40
46898;DHT22;32646;50.958;6.258;2022-11-15T10:52:15;16.10;89.60
46898;DHT22;32646;50.958;6.258;2022-11-15T10:54:48;16.30;88.70
46898;DHT22;32646;50.958;6.258;2022-11-15T10:57:17;16.10;89.80
46898;DHT22;32646;50.958;6.258;2022-11-15T11:00:06;16.20;87.00
46898;DHT22;32646;50.958;6.258;2022-11-15T11:02:38;16.00;87.60
46898;DHT22;32646;50.958;6.258;2022-11-15T11:05:32;15.60;87.70
46898;DHT22;32646;50.958;6.258;2022-11-15T11:10:59;15.40;89.70
46898;DHT22;32646;50.958;6.258;2022-11-15T11:13:34;15.80;89.20
46898;DHT22;32646;50.958;6.258;2022-11-15T11:21:18;16.00;88.20
46898;DHT22;32646;50.958;6.258;2022-11-15T11:23:56;15.80;88.70
46898;DHT22;32646;50.958;6.258;2022-11-15T11:26:59;16.30;88.30
46898;DHT22;32646;50.958;6.258;2022-11-15T11:37:33;14.90;90.40
46898;DHT22;32646;50.958;6.258;2022-11-15T11:40:22;15.00;90.50
46898;DHT22;32646;50.958;6.258;2022-11-15T11:43:04;15.30;89.80
46898;DHT22;32646;50.958;6.258;2022-11-15T11:45:52;15.40;90.40
46898;DHT22;32646;50.958;6.258;2022-11-15T11:51:20;15.20;89.70
46898;DHT22;32646;50.958;6.258;2022-11-15T11:54:00;15.10;90.50
46898;DHT22;32646;50.958;6.258;2022-11-15T11:56:33;15.10;91.70
46898;DHT22;32646;50.958;6.258;2022-11-15T11:59:37;15.00;92.50
46898;DHT22;32646;50.958;6.258;2022-11-15T12:02:37;14.80;93.70
46898;DHT22;32646;50.958;6.258;2022-11-15T12:05:16;14.60;92.50
46898;DHT22;32646;50.958;6.258;2022-11-15T12:07:46;14.50;93.50
46898;DHT22;32646;50.958;6.258;2022-11-15T12:10:24;14.50;93.90
46898;DHT22;32646;50.958;6.258;2022-11-15T12:13:09;14.70;93.50
46898;DHT22;32646;50.958;6.258;2022-11-15T12:18:14;14.70;93.30
46898;DHT22;32646;50.958;6.258;2022-11-15T12:20:58;14.60;93.60
46898;DHT22;32646;50.958;6.258;2022-11-15T12:23:29;14.70;94.10
46898;DHT22;32646;50.958;6.258;2022-11-15T12:26:20;14.80;95.40
46898;DHT22;32646;50.958;6.258;2022-11-15T12:29:04;15.10;95.70
46898;DHT22;32646;50.958;6.258;2022-11-15T12:34:28;15.30;94.50
46898;DHT22;32646;50.958;6.258;2022-11-15T12:36:55;15.30;95.00
46898;DHT22;32646;50.958;6.258;2022-11-15T12:42:59;15.00;96.50
46898;DHT22;32646;50.958;6.258;2022-11-15T12:45:35;14.70;96.20
46898;DHT22;32646;50.958;6.258;2022-11-15T12:50:56;14.60;95.20
46898;DHT22;32646;50.958;6.258;2022-11-15T12:58:43;14.50;96.10
46898;DHT22;32646;50.958;6.258;2022-11-15T13:07:03;14.50;96.00
46898;DHT22;32646;50.958;6.258;2022-11-15T13:15:07;14.50;98.30
46898;DHT22;32646;50.958;6.258;2022-11-15T13:17:51;14.40;98.50
46898;DHT22;32646;50.958;6.258;2022-11-15T13:23:11;14.30;98.70
46898;DHT22;32646;50.958;6.258;2022-11-15T13:34:14;14.30;98.90
46898;DHT22;32646;50.958;6.258;2022-11-15T13:37:02;14.40;99.10
46898;DHT22;32646;50.958;6.258;2022-11-15T13:39:31;14.40;98.10
46898;DHT22;32646;50.958;6.258;2022-11-15T13:41:59;14.40;98.90
46898;DHT22;32646;50.958;6.258;2022-11-15T13:44:31;14.40;99.10
46898;DHT22;32646;50.958;6.258;2022-11-15T13:47:14;14.30;99.60
46898;DHT22;32646;50.958;6.258;2022-11-15T13:49:41;14.20;99.70
46898;DHT22;32646;50.958;6.258;2022-11-15T13:52:13;14.20;99.50
46898;DHT22;32646;50.958;6.258;2022-11-15T13:54:44;14.10;99.90
46898;DHT22;32646;50.958;6.258;2022-11-15T14:00:22;13.90;99.90
46898;DHT22;32646;50.958;6.258;2022-11-15T14:02:51;13.90;99.90
46898;DHT22;32646;50.958;6.258;2022-11-15T14:05:20;13.90;99.90
46898;DHT22;32646;50.958;6.258;2022-11-15T14:07:55;13.80;99.90
46898;DHT22;32646;50.958;6.258;2022-11-15T14:10:34;13.80;99.90
46898;DHT22;32646;50.958;6.258;2022-11-15T14:13:02;13.80;99.90
46898;DHT22;32646;50.958;6.258;2022-11-15T14:15:35;13.80;99.90
46898;DHT22;32646;50.958;6.258;2022-11-15T14:18:03;13.90;99.90
46898;DHT22;32646;50.958;6.258;2022-11-15T14:20:38;14.00;99.90
46898;DHT22;32646;50.958;6.258;2022-11-15T14:23:28;14.00;99.90
46898;DHT22;32646;50.958;6.258;2022-11-15T14:25:56;14.00;99.90
46898;DHT22;32646;50.958;6.258;2022-11-15T14:30:52;14.00;99.90
46898;DHT22;32646;50.958;6.258;2022-11-15T14:35:51;13.80;99.90
46898;DHT22;32646;50.958;6.258;2022-11-15T14:38:18;13.80;99.90
46898;DHT22;32646;50.958;6.258;2022-11-15T14:40:45;13.80;99.90
46898;DHT22;32646;50.958;6.258;2022-11-15T14:43:12;13.70;99.90
46898;DHT22;32646;50.958;6.258;2022-11-15T14:45:39;13.70;99.90
46898;DHT22;32646;50.958;6.258;2022-11-15T14:48:06;13.60;99.90
46898;DHT22;32646;50.958;6.258;2022-11-15T14:50:34;13.60;99.90
46898;DHT22;32646;50.958;6.258;2022-11-15T14:53:01;13.50;99.90
46898;DHT22;32646;50.958;6.258;2022-11-15T14:55:30;13.50;99.90
46898;DHT22;32646;50.958;6.258;2022-11-15T14:57:58;13.40;99.90
46898;DHT22;32646;50.958;6.258;2022-11-15T15:00:25;13.40;99.90
46898;DHT22;32646;50.958;6.258;2022-11-15T15:02:56;13.40;99.90
46898;DHT22;32646;50.958;6.258;2022-11-15T15:05:31;13.30;99.90
46898;DHT22;32646;50.958;6.258;2022-11-15T15:07:58;13.30;99.90
46898;DHT22;32646;50.958;6.258;2022-11-15T15:10:29;13.30;99.90
46898;DHT22;32646;50.958;6.258;2022-11-15T15:15:42;13.30;99.90
46898;DHT22;32646;50.958;6.258;2022-11-15T15:18:08;13.30;99.90
46898;DHT22;32646;50.958;6.258;2022-11-15T15:20:38;13.20;99.90
46898;DHT22;32646;50.958;6.258;2022-11-15T15:23:05;13.10;99.90
46898;DHT22;32646;50.958;6.258;2022-11-15T15:25:34;13.20;99.90
46898;DHT22;32646;50.958;6.258;2022-11-15T15:28:01;13.20;99.90
46898;DHT22;32646;50.958;6.258;2022-11-15T15:30:29;13.20;99.90
46898;DHT22;32646;50.958;6.258;2022-11-15T15:32:56;13.30;99.90
46898;DHT22;32646;50.958;6.258;2022-11-15T15:35:30;13.20;99.90
46898;DHT22;32646;50.958;6.258;2022-11-15T15:37:58;13.30;99.90
46898;DHT22;32646;50.958;6.258;2022-11-15T15:40:26;13.30;99.90
46898;DHT22;32646;50.958;6.258;2022-11-15T15:42:53;13.30;99.90
46898;DHT22;32646;50.958;6.258;2022-11-15T15:45:19;13.30;99.90
46898;DHT22;32646;50.958;6.258;2022-11-15T15:47:46;13.20;99.90
46898;DHT22;32646;50.958;6.258;2022-11-15T15:50:20;13.20;99.90
46898;DHT22;32646;50.958;6.258;2022-11-15T15:52:48;13.20;99.90
46898;DHT22;32646;50.958;6.258;2022-11-15T15:55:15;13.20;99.90
46898;DHT22;32646;50.958;6.258;2022-11-15T15:57:41;13.20;99.90
46898;DHT22;32646;50.958;6.258;2022-11-15T16:00:09;13.20;99.90
46898;DHT22;32646;50.958;6.258;2022-11-15T16:02:35;13.20;99.90
46898;DHT22;32646;50.958;6.258;2022-11-15T16:05:06;13.20;99.90
46898;DHT22;32646;50.958;6.258;2022-11-15T16:07:33;13.30;99.90
46898;DHT22;32646;50.958;6.258;2022-11-15T16:10:00;13.30;99.90
46898;DHT22;32646;50.958;6.258;2022-11-15T16:12:31;13.30;99.90
46898;DHT22;32646;50.958;6.258;2022-11-15T16:14:58;13.30;99.90
46898;DHT22;32646;50.958;6.258;2022-11-15T16:17:28;13.20;99.90
46898;DHT22;32646;50.958;6.258;2022-11-15T16:20:00;13.30;99.90
46898;DHT22;32646;50.958;6.258;2022-11-15T16:22:26;13.30;99.90
46898;DHT22;32646;50.958;6.258;2022-11-15T16:24:53;13.20;99.90
46898;DHT22;32646;50.958;6.258;2022-11-15T16:27:20;13.20;99.90
46898;DHT22;32646;50.958;6.258;2022-11-15T16:29:47;13.20;99.90
46898;DHT22;32646;50.958;6.258;2022-11-15T16:32:15;13.20;99.90
46898;DHT22;32646;50.958;6.258;2022-11-15T16:34:42;13.20;99.90
46898;DHT22;32646;50.958;6.258;2022-11-15T16:37:22;13.10;99.90
46898;DHT22;32646;50.958;6.258;2022-11-15T16:39:49;13.00;99.90
46898;DHT22;32646;50.958;6.258;2022-11-15T16:42:16;13.00;99.90
46898;DHT22;32646;50.958;6.258;2022-11-15T16:44:42;12.90;99.90
46898;DHT22;32646;50.958;6.258;2022-11-15T16:47:18;12.70;99.90
46898;DHT22;32646;50.958;6.258;2022-11-15T16:49:45;12.50;99.90
46898;DHT22;32646;50.958;6.258;2022-11-15T16:52:11;12.30;99.90
46898;DHT22;32646;50.958;6.258;2022-11-15T16:54:38;12.10;99.90
46898;DHT22;32646;50.958;6.258;2022-11-15T16:57:04;11.80;99.90
46898;DHT22;32646;50.958;6.258;2022-11-15T16:59:31;11.50;99.90
46898;DHT22;32646;50.958;6.258;2022-11-15T17:02:04;11.40;99.90
46898;DHT22;32646;50.958;6.258;2022-11-15T17:04:31;11.30;99.90
46898;DHT22;32646;50.958;6.258;2022-11-15T17:06:58;11.10;99.90
46898;DHT22;32646;50.958;6.258;2022-11-15T17:09:25;11.00;99.90
46898;DHT22;32646;50.958;6.258;2022-11-15T17:11:52;11.00;99.90
46898;DHT22;32646;50.958;6.258;2022-11-15T17:14:19;10.90;99.90
46898;DHT22;32646;50.958;6.258;2022-11-15T17:16:45;10.90;99.90
46898;DHT22;32646;50.958;6.258;2022-11-15T17:19:14;10.90;99.90
46898;DHT22;32646;50.958;6.258;2022-11-15T17:21:42;10.90;99.90
46898;DHT22;32646;50.958;6.258;2022-11-15T17:24:09;10.80;99.90
46898;DHT22;32646;50.958;6.258;2022-11-15T17:26:36;10.80;99.90
46898;DHT22;32646;50.958;6.258;2022-11-15T17:29:06;10.80;99.90
46898;DHT22;32646;50.958;6.258;2022-11-15T17:31:36;10.80;99.90
46898;DHT22;32646;50.958;6.258;2022-11-15T17:34:04;10.80;99.90
46898;DHT22;32646;50.958;6.258;2022-11-15T17:36:31;10.80;99.90
46898;DHT22;32646;50.958;6.258;2022-11-15T17:38:57;10.80;99.90
46898;DHT22;32646;50.958;6.258;2022-11-15T17:41:26;10.80;99.90
46898;DHT22;32646;50.958;6.258;2022-11-15T17:43:56;10.80;99.90
46898;DHT22;32646;50.958;6.258;2022-11-15T17:46:22;10.80;99.90
46898;DHT22;32646;50.958;6.258;2022-11-15T17:48:49;10.80;99.90
46898;DHT22;32646;50.958;6.258;2022-11-15T17:51:17;10.80;99.90